createdAt,value
2023-03-21T00:01:53.249Z,59.13
2023-03-21T00:04:28.341Z,59.29
2023-03-21T00:06:59.919Z,59.53
2023-03-21T00:09:28.411Z,59.56
2023-03-21T00:12:02.808Z,59.75
2023-03-21T00:14:31.528Z,59.88
2023-03-21T00:16:59.625Z,59.94
2023-03-21T00:19:29.466Z,59.85
2023-03-21T00:22:07.852Z,59.85
2023-03-21T00:24:37.707Z,59.99
2023-03-21T00:27:33.736Z,60.08
2023-03-21T00:29:56.992Z,60.20
2023-03-21T00:32:33.961Z,60.35
2023-03-21T00:35:26.127Z,60.47
2023-03-21T00:37:55.884Z,60.68
2023-03-21T00:40:29.611Z,60.64
2023-03-21T00:43:01.190Z,60.74
2023-03-21T00:45:29.963Z,60.74
2023-03-21T00:47:58.336Z,60.79
2023-03-21T00:50:30.490Z,60.93
2023-03-21T00:53:00.416Z,61.05
2023-03-21T00:55:28.577Z,61.06
2023-03-21T00:58:02.160Z,61.15
2023-03-21T01:00:31.222Z,61.22
2023-03-21T01:03:17.509Z,61.34
2023-03-21T01:06:06.067Z,61.36
2023-03-21T01:08:50.719Z,61.39
2023-03-21T01:11:25.244Z,61.46
2023-03-21T01:14:04.170Z,61.52
2023-03-21T01:16:39.484Z,61.55
2023-03-21T01:19:18.194Z,61.47
2023-03-21T01:21:50.618Z,61.52
2023-03-21T01:24:18.752Z,61.46
2023-03-21T01:26:46.918Z,61.43
2023-03-21T01:29:15.352Z,61.36
2023-03-21T01:31:43.823Z,61.38
2023-03-21T01:34:12.023Z,61.41
2023-03-21T01:37:00.713Z,61.42
2023-03-21T01:39:30.010Z,61.47
2023-03-21T01:41:58.177Z,61.49
2023-03-21T01:44:29.057Z,61.39
2023-03-21T01:47:13.408Z,61.46
2023-03-21T01:50:02.194Z,61.45
2023-03-21T01:52:50.469Z,61.44
2023-03-21T01:55:26.502Z,61.37
2023-03-21T01:58:07.102Z,61.44
2023-03-21T02:01:16.149Z,61.46
2023-03-21T02:03:52.695Z,61.45
2023-03-21T02:07:01.169Z,61.51
2023-03-21T02:09:37.829Z,61.69
2023-03-21T02:12:08.847Z,61.82
2023-03-21T02:14:37.926Z,61.92
2023-03-21T02:17:15.925Z,62.02
2023-03-21T02:20:30.570Z,62.05
2023-03-21T02:23:27.265Z,62.21
2023-03-21T02:26:07.980Z,62.32
2023-03-21T02:29:02.804Z,62.39
2023-03-21T02:32:16.228Z,62.61
2023-03-21T02:35:01.204Z,62.66
2023-03-21T02:38:00.650Z,62.62
2023-03-21T02:40:50.592Z,62.58
2023-03-21T02:43:37.303Z,62.60
2023-03-21T02:46:14.342Z,62.62
2023-03-21T02:49:21.324Z,62.68
2023-03-21T02:51:51.042Z,62.81
2023-03-21T02:54:34.986Z,62.95
2023-03-21T02:57:04.524Z,63.12
2023-03-21T02:59:35.790Z,63.39
2023-03-21T03:02:06.861Z,63.53
2023-03-21T03:04:35.950Z,63.93
2023-03-21T03:07:13.686Z,64.22
2023-03-21T03:09:50.279Z,64.32
2023-03-21T03:12:25.828Z,64.44
2023-03-21T03:15:17.793Z,64.53
2023-03-21T03:18:00.094Z,64.83
2023-03-21T03:20:33.264Z,64.96
2023-03-21T03:23:05.703Z,65.02
2023-03-21T03:25:49.063Z,65.03
2023-03-21T03:28:20.347Z,64.94
2023-03-21T03:31:01.146Z,65.29
2023-03-21T03:33:38.970Z,65.50
2023-03-21T03:36:21.419Z,65.71
2023-03-21T03:38:57.892Z,66.09
2023-03-21T03:41:29.397Z,66.28
2023-03-21T03:44:01.775Z,66.05
2023-03-21T03:46:36.179Z,65.87
2023-03-21T03:49:15.836Z,65.72
2023-03-21T03:51:47.692Z,65.58
2023-03-21T03:54:33.410Z,65.44
2023-03-21T03:57:05.446Z,65.29
2023-03-21T03:59:36.073Z,65.03
2023-03-21T04:02:33.156Z,65.00
2023-03-21T04:05:04.389Z,64.92
2023-03-21T04:07:32.755Z,64.95
2023-03-21T04:10:03.717Z,64.96
2023-03-21T04:12:33.407Z,64.93
2023-03-21T04:15:30.900Z,65.06
2023-03-21T04:18:07.338Z,65.09
2023-03-21T04:20:37.432Z,65.24
2023-03-21T04:23:07.881Z,65.18
2023-03-21T04:25:38.708Z,65.09
2023-03-21T04:28:08.764Z,65.02
2023-03-21T04:31:03.499Z,65.12
2023-03-21T04:33:38.897Z,65.24
2023-03-21T04:36:09.439Z,65.49
2023-03-21T04:38:38.204Z,65.80
2023-03-21T04:41:06.564Z,66.03
2023-03-21T04:43:38.533Z,66.45
2023-03-21T04:46:07.261Z,66.65
2023-03-21T04:48:35.706Z,66.92
2023-03-21T04:51:07.167Z,67.05
2023-03-21T04:53:35.500Z,67.02
2023-03-21T04:56:06.569Z,67.10
2023-03-21T04:58:37.961Z,67.06
2023-03-21T05:01:07.392Z,67.01
2023-03-21T05:03:40.059Z,67.05
2023-03-21T05:06:09.088Z,67.08
2023-03-21T05:08:37.291Z,67.05
2023-03-21T05:11:05.976Z,67.15
2023-03-21T05:13:36.266Z,67.31
2023-03-21T05:16:04.969Z,67.43
2023-03-21T05:18:38.893Z,67.30
2023-03-21T05:21:18.319Z,67.25
2023-03-21T05:23:54.383Z,67.12
2023-03-21T05:26:23.252Z,67.16
2023-03-21T05:29:06.051Z,66.92
2023-03-21T05:31:36.387Z,66.76
2023-03-21T05:34:08.456Z,66.59
2023-03-21T05:36:40.164Z,66.36
2023-03-21T05:39:09.923Z,66.25
2023-03-21T05:41:41.781Z,66.11
2023-03-21T05:44:10.241Z,66.20
2023-03-21T05:46:40.074Z,66.07
2023-03-21T05:49:12.485Z,66.15
2023-03-21T05:51:42.363Z,66.10
2023-03-21T05:54:16.877Z,66.12
2023-03-21T05:56:48.546Z,66.04
2023-03-21T05:59:26.702Z,66.14
2023-03-21T06:01:55.436Z,65.83
2023-03-21T06:04:24.548Z,66.15
2023-03-21T06:06:53.740Z,66.35
2023-03-21T06:09:26.716Z,66.55
2023-03-21T06:11:57.656Z,66.47
2023-03-21T06:14:51.659Z,66.29
2023-03-21T06:17:36.516Z,66.50
2023-03-21T06:20:09.628Z,65.99
2023-03-21T06:22:47.443Z,65.98
2023-03-21T06:25:15.930Z,65.54
2023-03-21T06:27:44.351Z,65.29
2023-03-21T06:30:16.315Z,64.87
2023-03-21T06:32:55.552Z,64.76
2023-03-21T06:35:23.832Z,64.36
2023-03-21T06:37:52.636Z,63.96
2023-03-21T06:40:21.818Z,63.93
2023-03-21T06:42:49.956Z,63.79
2023-03-21T06:45:18.372Z,63.81
2023-03-21T06:47:46.976Z,63.67
2023-03-21T06:50:28.905Z,63.77
2023-03-21T06:52:59.486Z,63.89
2023-03-21T06:55:29.103Z,63.92
2023-03-21T06:57:59.297Z,63.70
2023-03-21T07:00:28.433Z,64.37
2023-03-21T07:02:57.197Z,64.45
2023-03-21T07:05:29.680Z,63.98
2023-03-21T07:07:58.149Z,64.54
2023-03-21T07:10:32.838Z,64.33
2023-03-21T07:13:06.518Z,64.51
2023-03-21T07:15:41.395Z,64.79
2023-03-21T07:18:11.561Z,65.27
2023-03-21T07:20:39.793Z,64.96
2023-03-21T07:23:08.481Z,64.98
2023-03-21T07:25:37.268Z,65.19
2023-03-21T07:28:09.167Z,64.83
2023-03-21T07:30:38.022Z,64.63
2023-03-21T07:33:07.628Z,64.57
2023-03-21T07:35:37.606Z,64.36
2023-03-21T07:38:10.997Z,64.26
2023-03-21T07:40:39.391Z,63.86
2023-03-21T07:43:08.032Z,63.42
2023-03-21T07:45:42.797Z,63.09
2023-03-21T07:48:17.655Z,63.13
2023-03-21T07:50:46.569Z,63.23
2023-03-21T07:53:15.043Z,63.05
2023-03-21T07:55:43.811Z,62.49
2023-03-21T07:58:17.011Z,61.97
2023-03-21T08:00:45.319Z,61.81
2023-03-21T08:03:13.600Z,61.44
2023-03-21T08:05:47.162Z,61.48
2023-03-21T08:08:15.951Z,61.03
2023-03-21T08:10:44.572Z,60.88
2023-03-21T08:13:12.938Z,60.15
2023-03-21T08:15:42.645Z,59.99
2023-03-21T08:18:11.439Z,60.13
2023-03-21T08:20:42.350Z,60.34
2023-03-21T08:23:10.727Z,59.19
2023-03-21T08:25:39.886Z,59.25
2023-03-21T08:28:08.308Z,58.85
2023-03-21T08:30:36.849Z,58.66
2023-03-21T08:33:05.388Z,58.50
2023-03-21T08:35:34.306Z,58.05
2023-03-21T08:38:03.873Z,57.66
2023-03-21T08:40:32.799Z,57.69
2023-03-21T08:43:01.132Z,58.06
2023-03-21T08:45:30.335Z,58.31
2023-03-21T08:48:03.088Z,58.46
2023-03-21T08:50:32.065Z,58.33
2023-03-21T08:53:00.408Z,58.52
2023-03-21T08:55:28.815Z,57.30
2023-03-21T08:57:58.233Z,57.23
2023-03-21T09:00:27.363Z,57.10
2023-03-21T09:02:56.276Z,56.68
2023-03-21T09:05:27.198Z,56.42
2023-03-21T09:07:55.263Z,56.30
2023-03-21T09:10:23.644Z,55.70
2023-03-21T09:12:55.620Z,55.89
2023-03-21T09:15:28.991Z,55.07
2023-03-21T09:17:58.944Z,54.35
2023-03-21T09:20:31.465Z,54.81
2023-03-21T09:23:02.079Z,54.76
2023-03-21T09:25:31.742Z,54.86
2023-03-21T09:28:04.845Z,53.76
2023-03-21T09:30:34.641Z,53.86
2023-03-21T09:33:09.781Z,54.78
2023-03-21T09:35:38.178Z,54.39
2023-03-21T09:38:07.039Z,54.32
2023-03-21T09:40:56.619Z,53.65
2023-03-21T09:43:32.096Z,52.99
2023-03-21T09:46:09.147Z,53.30
2023-03-21T09:48:55.975Z,52.89
2023-03-21T09:51:33.943Z,52.60
2023-03-21T09:54:08.811Z,52.13
2023-03-21T09:56:36.984Z,51.63
2023-03-21T09:59:07.286Z,50.16
2023-03-21T10:01:42.122Z,50.23
2023-03-21T10:04:16.744Z,50.52
2023-03-21T10:06:53.179Z,50.51
2023-03-21T10:09:23.044Z,50.57
2023-03-21T10:11:57.723Z,50.08
2023-03-21T10:14:28.440Z,49.81
2023-03-21T10:17:02.812Z,49.96
2023-03-21T10:19:31.018Z,48.92
2023-03-21T10:22:02.437Z,49.50
2023-03-21T10:24:33.603Z,49.09
2023-03-21T10:27:02.620Z,48.55
2023-03-21T10:29:33.843Z,49.49
2023-03-21T10:32:02.040Z,49.24
2023-03-21T10:34:32.349Z,48.67
2023-03-21T10:37:01.630Z,49.30
2023-03-21T10:39:41.528Z,49.75
2023-03-21T10:42:23.960Z,49.78
2023-03-21T10:44:53.881Z,49.33
2023-03-21T10:47:24.503Z,49.15
2023-03-21T10:50:10.185Z,48.49
2023-03-21T10:52:50.518Z,48.82
2023-03-21T10:55:19.133Z,49.07
2023-03-21T10:57:49.388Z,48.81
2023-03-21T11:00:23.278Z,48.76
2023-03-21T11:03:05.158Z,48.67
2023-03-21T11:05:40.808Z,48.14
2023-03-21T11:08:16.759Z,47.93
2023-03-21T11:11:01.881Z,48.21
2023-03-21T11:13:37.908Z,48.11
2023-03-21T11:16:13.574Z,48.25
2023-03-21T11:18:43.334Z,48.69
2023-03-21T11:21:12.925Z,48.68
2023-03-21T11:23:44.729Z,48.80
2023-03-21T11:26:19.161Z,49.03
2023-03-21T11:28:48.054Z,49.41
2023-03-21T11:31:17.102Z,49.83
2023-03-21T11:33:52.081Z,50.01
2023-03-21T11:36:21.001Z,49.88
2023-03-21T11:38:53.693Z,49.73
2023-03-21T11:41:32.586Z,49.23
2023-03-21T11:44:23.636Z,49.58
2023-03-21T11:46:53.274Z,50.03
2023-03-21T11:49:23.434Z,50.42
2023-03-21T11:52:17.936Z,50.46
2023-03-21T11:55:04.547Z,50.77
2023-03-21T11:58:02.743Z,50.92
2023-03-21T12:00:46.516Z,51.43
2023-03-21T12:03:35.313Z,51.24
2023-03-21T12:06:40.751Z,51.38
2023-03-21T12:09:53.873Z,51.68
2023-03-21T12:12:41.809Z,51.62
2023-03-21T12:15:20.332Z,51.55
2023-03-21T12:17:51.107Z,51.53
2023-03-21T12:20:34.561Z,51.14
2023-03-21T12:23:29.650Z,51.06
2023-03-21T12:26:03.773Z,51.33
2023-03-21T12:28:47.835Z,51.71
2023-03-21T12:31:22.393Z,51.83
2023-03-21T12:33:57.486Z,51.54
2023-03-21T12:36:44.154Z,51.81
2023-03-21T12:39:21.603Z,51.88
2023-03-21T12:42:04.215Z,52.22
2023-03-21T12:44:39.285Z,52.29
2023-03-21T12:47:28.920Z,52.14
2023-03-21T12:50:01.576Z,52.49
2023-03-21T12:52:35.384Z,52.68
2023-03-21T12:55:13.903Z,52.72
2023-03-21T12:57:57.099Z,52.59
2023-03-21T13:00:47.398Z,52.81
2023-03-21T13:03:33.587Z,52.63
2023-03-21T13:06:07.830Z,52.63
2023-03-21T13:08:54.773Z,52.54
2023-03-21T13:11:24.995Z,51.98
2023-03-21T13:14:18.129Z,52.17
2023-03-21T13:16:48.852Z,52.38
2023-03-21T13:19:31.270Z,52.52
2023-03-21T13:22:29.347Z,52.67
2023-03-21T13:24:59.086Z,52.64
2023-03-21T13:27:32.355Z,52.55
2023-03-21T13:30:28.376Z,52.56
2023-03-21T13:33:08.054Z,52.72
2023-03-21T13:35:41.744Z,52.83
2023-03-21T13:38:12.996Z,52.86
2023-03-21T13:40:48.828Z,52.80
2023-03-21T13:43:35.980Z,52.73
2023-03-21T13:46:14.235Z,52.85
2023-03-21T13:48:52.506Z,52.78
2023-03-21T13:51:28.944Z,52.80
2023-03-21T13:54:19.736Z,52.89
2023-03-21T13:56:48.859Z,53.25
2023-03-21T13:59:18.268Z,53.39
2023-03-21T14:02:32.496Z,53.35
2023-03-21T14:05:07.023Z,53.22
2023-03-21T14:07:43.084Z,52.95
2023-03-21T14:10:36.364Z,52.75
2023-03-21T14:13:10.132Z,52.82
2023-03-21T14:15:54.963Z,52.74
2023-03-21T14:18:35.066Z,52.77
2023-03-21T14:21:24.848Z,52.85
2023-03-21T14:24:07.362Z,52.93
2023-03-21T14:26:37.941Z,53.30
2023-03-21T14:29:22.864Z,53.32
2023-03-21T14:31:55.586Z,53.52
2023-03-21T14:34:24.323Z,53.43
2023-03-21T14:36:58.335Z,53.12
2023-03-21T14:39:31.060Z,53.08
2023-03-21T14:42:07.483Z,53.04
2023-03-21T14:44:58.366Z,52.65
2023-03-21T14:47:28.160Z,52.71
2023-03-21T14:49:56.647Z,52.75
2023-03-21T14:52:31.529Z,52.80
2023-03-21T14:55:05.931Z,52.76
2023-03-21T14:57:38.393Z,52.62
2023-03-21T15:00:14.660Z,52.58
2023-03-21T15:02:43.398Z,52.77
2023-03-21T15:05:28.872Z,52.84
2023-03-21T15:07:58.424Z,52.99
2023-03-21T15:10:28.784Z,52.91
2023-03-21T15:13:00.041Z,52.77
2023-03-21T15:15:29.555Z,53.17
2023-03-21T15:18:01.111Z,53.02
2023-03-21T15:20:30.544Z,53.19
2023-03-21T15:23:02.728Z,52.82
2023-03-21T15:25:33.764Z,52.87
2023-03-21T15:28:05.339Z,52.74
2023-03-21T15:30:34.361Z,52.74
2023-03-21T15:33:07.973Z,52.74
2023-03-21T15:35:42.043Z,52.86
2023-03-21T15:38:32.014Z,52.79
2023-03-21T15:41:21.798Z,52.79
2023-03-21T15:43:59.502Z,52.80
2023-03-21T15:46:44.380Z,52.73
2023-03-21T15:49:13.001Z,52.79
2023-03-21T15:52:07.507Z,52.84
2023-03-21T15:54:48.153Z,53.01
2023-03-21T15:57:25.092Z,52.95
2023-03-21T15:59:59.444Z,52.89
2023-03-21T16:02:29.632Z,53.05
2023-03-21T16:04:59.760Z,53.08
2023-03-21T16:07:28.210Z,53.15
2023-03-21T16:10:01.461Z,53.22
2023-03-21T16:12:29.887Z,53.40
2023-03-21T16:14:58.165Z,53.41
2023-03-21T16:17:37.799Z,53.47
2023-03-21T16:20:28.811Z,53.49
2023-03-21T16:22:59.903Z,53.63
2023-03-21T16:25:33.759Z,53.73
2023-03-21T16:28:03.470Z,53.72
2023-03-21T16:30:32.448Z,53.80
2023-03-21T16:33:00.940Z,53.90
2023-03-21T16:35:30.164Z,53.88
2023-03-21T16:37:58.373Z,54.00
2023-03-21T16:40:37.619Z,53.98
2023-03-21T16:43:06.163Z,54.19
2023-03-21T16:45:34.330Z,54.11
2023-03-21T16:48:02.603Z,54.21
2023-03-21T16:50:31.894Z,54.22
2023-03-21T16:53:00.518Z,54.25
2023-03-21T16:55:33.078Z,54.42
2023-03-21T16:58:06.505Z,54.44
2023-03-21T17:00:37.108Z,54.35
2023-03-21T17:03:13.061Z,54.42
2023-03-21T17:05:42.743Z,54.46
2023-03-21T17:08:18.926Z,54.58
2023-03-21T17:10:47.389Z,54.62
2023-03-21T17:13:16.187Z,54.59
2023-03-21T17:15:44.781Z,54.70
2023-03-21T17:18:16.622Z,54.60
2023-03-21T17:20:46.858Z,54.62
